地図

経路データ

SID SEASON NUMBER BASIN SUBBASIN NAME ISO_TIME NATURE LAT LON WMO_WIND WMO_PRES WMO_AGENCY TRACK_TYPE DIST2LAND LANDFALL IFLAG USA_AGENCY USA_ATCF_ID USA_LAT USA_LON USA_RECORD USA_STATUS USA_WIND USA_PRES USA_SSHS USA_R34_NE USA_R34_SE USA_R34_SW USA_R34_NW USA_R50_NE USA_R50_SE USA_R50_SW USA_R50_NW USA_R64_NE USA_R64_SE USA_R64_SW USA_R64_NW USA_POCI USA_ROCI USA_RMW USA_EYE TOKYO_LAT TOKYO_LON TOKYO_GRADE TOKYO_WIND TOKYO_PRES TOKYO_R50_DIR TOKYO_R50_LONG TOKYO_R50_SHORT TOKYO_R30_DIR TOKYO_R30_LONG TOKYO_R30_SHORT TOKYO_LAND CMA_LAT CMA_LON CMA_CAT CMA_WIND CMA_PRES HKO_LAT HKO_LON HKO_CAT HKO_WIND HKO_PRES NEWDELHI_LAT NEWDELHI_LON NEWDELHI_GRADE NEWDELHI_WIND NEWDELHI_PRES NEWDELHI_CI NEWDELHI_DP NEWDELHI_POCI REUNION_LAT REUNION_LON REUNION_TYPE REUNION_WIND REUNION_PRES REUNION_TNUM REUNION_CI REUNION_RMW REUNION_R34_NE REUNION_R34_SE REUNION_R34_SW REUNION_R34_NW REUNION_R50_NE REUNION_R50_SE REUNION_R50_SW REUNION_R50_NW REUNION_R64_NE REUNION_R64_SE REUNION_R64_SW REUNION_R64_NW BOM_LAT BOM_LON BOM_TYPE BOM_WIND BOM_PRES BOM_TNUM BOM_CI BOM_RMW BOM_R34_NE BOM_R34_SE BOM_R34_SW BOM_R34_NW BOM_R50_NE BOM_R50_SE BOM_R50_SW BOM_R50_NW BOM_R64_NE BOM_R64_SE BOM_R64_SW BOM_R64_NW BOM_ROCI BOM_POCI BOM_EYE BOM_POS_METHOD BOM_PRES_METHOD NADI_LAT NADI_LON NADI_CAT NADI_WIND NADI_PRES WELLINGTON_LAT WELLINGTON_LON WELLINGTON_WIND WELLINGTON_PRES DS824_LAT DS824_LON DS824_STAGE DS824_WIND DS824_PRES TD9636_LAT TD9636_LON TD9636_STAGE TD9636_WIND TD9636_PRES TD9635_LAT TD9635_LON TD9635_WIND TD9635_PRES TD9635_ROCI NEUMANN_LAT NEUMANN_LON NEUMANN_CLASS NEUMANN_WIND NEUMANN_PRES MLC_LAT MLC_LON MLC_CLASS MLC_WIND MLC_PRES USA_GUST BOM_GUST BOM_GUST_PER REUNION_GUST REUNION_GUST_PER USA_SEAHGT USA_SEARAD_NE USA_SEARAD_SE USA_SEARAD_SW USA_SEARAD_NW STORM_SPEED STORM_DIR
1997196N08142 1997 51 WP MM ROSIE 1997-07-15 00:00:00 NR 7.90000 142.400 main 1161 1157 O_____________ jtwc_wp WP101997 7.90000 142.400 15 -1 3 288
1997196N08142 1997 51 WP MM ROSIE 1997-07-15 03:00:00 NR 7.95001 142.250 main 1168 1159 P_____________ WP101997 7.95001 142.250 15 -1 3 289
1997196N08142 1997 51 WP MM ROSIE 1997-07-15 06:00:00 NR 8.00000 142.100 main 1159 1155 O_____________ jtwc_wp WP101997 8.00000 142.100 15 -1 3 289
1997196N08142 1997 51 WP MM ROSIE 1997-07-15 09:00:00 NR 8.05000 141.950 main 1155 1155 P_____________ WP101997 8.05000 141.950 15 -1 3 289
1997196N08142 1997 51 WP MM ROSIE 1997-07-15 12:00:00 NR 8.10000 141.800 main 1158 1154 O_____________ jtwc_wp WP101997 8.10000 141.800 15 -1 3 290
1997196N08142 1997 51 WP MM ROSIE 1997-07-15 15:00:00 NR 8.15749 141.650 main 1164 1157 P_____________ WP101997 8.15749 141.650 15 -1 3 289
1997196N08142 1997 51 WP MM ROSIE 1997-07-15 18:00:00 NR 8.20000 141.500 main 1157 1154 O_____________ jtwc_wp WP101997 8.20000 141.500 15 -1 3 280
1997196N08142 1997 51 WP MM ROSIE 1997-07-15 21:00:00 NR 8.20749 141.350 main 1150 1147 P_____________ WP101997 8.20749 141.350 15 -1 3 270
1997196N08142 1997 51 WP MM ROSIE 1997-07-16 00:00:00 NR 8.20000 141.200 main 1147 1144 O_____________ jtwc_wp WP101997 8.20000 141.200 15 -1 3 269
1997196N08142 1997 51 WP MM ROSIE 1997-07-16 03:00:00 NR 8.19999 141.050 main 1144 1138 P_____________ WP101997 8.19999 141.050 15 -1 3 270
1997196N08142 1997 51 WP MM ROSIE 1997-07-16 06:00:00 NR 8.20000 140.900 main 1138 1135 O_____________ jtwc_wp WP101997 8.20000 140.900 15 -1 3 270
1997196N08142 1997 51 WP MM ROSIE 1997-07-16 09:00:00 NR 8.19999 140.750 main 1135 1130 P_____________ WP101997 8.19999 140.750 15 -1 3 270
1997196N08142 1997 51 WP MM ROSIE 1997-07-16 12:00:00 NR 8.20000 140.600 main 1130 1127 O_____________ jtwc_wp WP101997 8.20000 140.600 15 -1 3 270
1997196N08142 1997 51 WP MM ROSIE 1997-07-16 15:00:00 NR 8.20000 140.450 main 1127 1120 P_____________ WP101997 8.20000 140.450 15 -1 3 270
1997196N08142 1997 51 WP MM ROSIE 1997-07-16 18:00:00 NR 8.20000 140.300 main 1120 1115 O_____________ jtwc_wp WP101997 8.20000 140.300 15 -1 3 269
1997196N08142 1997 51 WP MM ROSIE 1997-07-16 21:00:00 NR 8.19249 140.150 main 1115 1106 P_____________ WP101997 8.19249 140.150 15 -1 3 270
1997196N08142 1997 51 WP MM ROSIE 1997-07-17 00:00:00 NR 8.20000 140.000 main 1106 1101 O_____________ jtwc_wp WP101997 8.20000 140.000 15 -1 3 278
1997196N08142 1997 51 WP MM ROSIE 1997-07-17 03:00:00 NR 8.23499 139.850 main 1101 1097 P_____________ WP101997 8.23499 139.850 15 -1 3 289
1997196N08142 1997 51 WP MM ROSIE 1997-07-17 06:00:00 NR 8.30000 139.700 main 1103 1099 O_____________ jtwc_wp WP101997 8.30000 139.700 15 -1 3 297
1997196N08142 1997 51 WP MM ROSIE 1997-07-17 09:00:00 NR 8.38498 139.557 main 1109 1105 P_____________ WP101997 8.38498 139.557 15 -1 4 304
1997196N08142 1997 51 WP MM ROSIE 1997-07-17 12:00:00 NR 8.50000 139.400 main 1112 1108 O_____________ jtwc_wp WP101997 8.50000 139.400 15 -1 4 307
1997196N08142 1997 51 WP MM ROSIE 1997-07-17 15:00:00 NR 8.64249 139.215 main 1115 1115 P_____________ WP101997 8.64249 139.215 15 -1 5 307
1997196N08142 1997 51 WP MM ROSIE 1997-07-17 18:00:00 NR 8.80000 139.000 main 1129 1125 O_____________ jtwc_wp WP101997 8.80000 139.000 15 -1 5 302
1997196N08142 1997 51 WP MM ROSIE 1997-07-17 21:00:00 NR 8.92751 138.750 main 1129 1129 P_____________ WP101997 8.92751 138.750 15 -1 6 314
1997196N08142 1997 51 WP MM ROSIE 1997-07-18 00:00:00 TS 9.24000 138.540 main 1154 1154 O_O___________ jtwc_wp WP101997 9.10000 138.500 15 -1 9.80000 138.700 0 19 1004 8 327
1997196N08142 1997 51 WP MM ROSIE 1997-07-18 03:00:00 TS 9.56835 138.327 main 1192 1192 P_P___________ WP101997 9.37749 138.285 17 -1 9.95008 138.410 0 19 1004 8 330
1997196N08142 1997 51 WP MM ROSIE 1997-07-18 06:00:00 TS 9.90000 138.150 1004 tokyo main 1222 1219 OOO___________ jtwc_wp WP101997 9.70000 138.100 20 -1 10.1000 138.200 2 1004 0 0 0 10.1000 138.200 0 19 1004 6 335
1997196N08142 1997 51 WP MM ROSIE 1997-07-18 09:00:00 TS 10.1505 138.046 main 1249 1249 PPP___________ WP101997 10.0000 137.920 22 -1 10.2525 138.148 2 1004 0 0 10.2500 138.120 0 21 1003 5 341
1997196N08142 1997 51 WP MM ROSIE 1997-07-18 12:00:00 TS 10.3636 137.991 1004 tokyo main 1271 1271 OOO___________ jtwc_wp WP101997 10.3000 137.800 25 -1 10.4000 138.100 2 1004 0 0 0 10.4000 138.100 1 23 1002 4 348
1997196N08142 1997 51 WP MM ROSIE 1997-07-18 15:00:00 TS 10.5617 137.959 main 1293 1283 PPP___________ WP101997 10.6000 137.762 25 -1 10.5425 138.057 2 1003 0 0 10.5425 138.057 1 23 1002 4 352
1997196N08142 1997 51 WP MM ROSIE 1997-07-18 18:00:00 TS 10.7667 137.933 1002 tokyo main 1288 1288 OOO___________ jtwc_wp WP101997 10.9000 137.800 25 -1 10.7000 138.000 2 1002 0 0 0 10.7000 138.000 1 23 1002 4 352
1997196N08142 1997 51 WP MM ROSIE 1997-07-18 21:00:00 TS 10.9850 137.893 main 1294 1294 PPP___________ WP101997 11.2000 137.878 27 -1 10.8775 137.900 2 1002 0 0 10.8775 137.900 1 23 1002 5 355
1997196N08142 1997 51 WP MM ROSIE 1997-07-19 00:00:00 TS 11.2231 137.885 1002 tokyo main 1299 1299 OOOO__________ jtwc_wp WP101997 11.5000 138.000 30 -1 11.1000 137.800 2 1002 0 0 0 11.1000 137.800 1 23 1002 11.1000 138.100 TD 25 1002 5 0
1997196N08142 1997 51 WP MM ROSIE 1997-07-19 03:00:00 TS 11.5057 137.907 main 1305 1305 PPPP__________ WP101997 11.7925 138.165 30 -1 11.3850 137.750 2 1001 0 0 11.3925 137.757 1 26 1001 11.4000 138.008 TD 25 1002 6 3
1997196N08142 1997 51 WP MM ROSIE 1997-07-19 06:00:00 TS 11.8067 137.900 1000 tokyo main 1312 1306 OOOO__________ jtwc_wp WP101997 12.1000 138.300 30 -1 11.7000 137.700 2 1000 0 0 0 11.7000 137.700 1 29 1000 11.7000 137.900 TD 25 1002 6 352
1997196N08142 1997 51 WP MM ROSIE 1997-07-19 09:00:00 TS 12.1019 137.824 main 1309 1304 PPPP__________ WP101997 12.4499 138.360 30 -1 12.0075 137.615 2 999 0 0 11.9500 137.558 1 29 1000 12.0000 137.765 TD 27 1001 6 342
1997196N08142 1997 51 WP MM ROSIE 1997-07-19 12:00:00 TS 12.4000 137.700 998 tokyo main 1305 1296 OOOO__________ jtwc_wp WP101997 12.8000 138.300 30 -1 12.3000 137.500 2 998 0 0 0 12.2000 137.400 1 29 1000 12.3000 137.600 TD 30 1000 7 335
1997196N08142 1997 51 WP MM ROSIE 1997-07-19 15:00:00 TS 12.6987 137.544 main 1288 1280 PPPP__________ WP101997 13.1300 138.110 32 -1 12.5575 137.357 2 998 0 0 12.5000 137.300 1 29 1000 12.6075 137.408 TD 32 999 7 329
1997196N08142 1997 51 WP MM ROSIE 1997-07-19 18:00:00 TS 12.9750 137.350 998 tokyo main 1282 1253 OOOO__________ jtwc_wp WP101997 13.4000 137.800 35 0 12.8000 137.200 2 998 0 0 0 12.8000 137.200 1 29 1000 12.9000 137.200 TS 35 998 6 322
1997196N08142 1997 51 WP MM ROSIE 1997-07-19 21:00:00 TS 13.2037 137.136 main 1253 1236 PPPP__________ WP101997 13.5651 137.415 37 0 13.0425 137.057 2 997 0 0 13.0500 137.065 1 31 999 13.1575 137.007 TS 37 996 6 316
1997196N08142 1997 51 WP MM ROSIE 1997-07-20 00:00:00 TS 13.4250 136.900 35 996 tokyo main 1236 1220 OOOO__________ jtwc_wp WP101997 13.7000 137.000 40 0 13.3000 136.900 3 35 996 0 9 150 150 0 13.3000 136.900 2 34 998 13.4000 136.800 TS 40 994 7 316
1997196N08142 1997 51 WP MM ROSIE 1997-07-20 03:00:00 TS 13.6856 136.661 main 1222 1196 PPPP__________ WP101997 13.8924 136.642 42 0 13.6000 136.722 3 37 994 0 9 150 150 13.6000 136.722 2 36 996 13.6500 136.557 TS 42 992 7 317
1997196N08142 1997 51 WP MM ROSIE 1997-07-20 06:00:00 TS 13.9500 136.400 40 992 tokyo main 1198 1169 OOOO__________ jtwc_wp WP101997 14.1000 136.300 45 0 13.9000 136.500 3 40 992 0 9 150 150 0 13.9000 136.500 2 38 995 13.9000 136.300 TS 45 990 7 313
1997196N08142 1997 51 WP MM ROSIE 1997-07-20 09:00:00 TS 14.1931 136.100 main 1169 1141 PPPP__________ WP101997 14.2925 135.935 50 0 14.1650 136.208 3 45 988 0 9 160 160 14.1650 136.208 2 43 990 14.1500 136.050 TS 47 987 8 309
1997196N08142 1997 51 WP MM ROSIE 1997-07-20 12:00:00 TS 14.4250 135.800 50 985 tokyo main 1141 1125 OOOO__________ jtwc_wp WP101997 14.5000 135.600 55 0 14.4000 135.900 4 50 985 0 9 170 170 0 14.4000 135.900 3 48 985 14.4000 135.800 STS 50 985 7 310
1997196N08142 1997 51 WP MM ROSIE 1997-07-20 15:00:00 TS 14.6481 135.548 main 1114 1099 PPPP__________ WP101997 14.7424 135.335 57 0 14.5999 135.650 4 52 982 0 9 180 180 14.5999 135.650 3 51 985 14.6499 135.557 STS 52 982 7 313
1997196N08142 1997 51 WP MM ROSIE 1997-07-20 18:00:00 TS 14.8750 135.300 55 980 tokyo main 1102 1076 OOOO__________ jtwc_wp WP101997 15.0000 135.100 60 0 14.8000 135.400 4 55 980 9 50 50 9 190 190 0 14.8000 135.400 3 54 985 14.9000 135.300 STS 55 980 7 313
1997196N08142 1997 51 WP MM ROSIE 1997-07-20 21:00:00 TS 15.1194 135.020 main 1076 1056 PPPP__________ WP101997 15.2500 134.850 65 1 15.0425 135.107 4 57 977 9 55 55 9 215 215 15.0350 135.115 3 56 982 15.1500 135.007 STS 57 977 8 312
1997196N08142 1997 51 WP MM ROSIE 1997-07-21 00:00:00 TS 15.3750 134.725 60 975 tokyo main 1056 1033 OOOO__________ jtwc_wp WP101997 15.5000 134.600 70 1 15.3000 134.800 4 60 975 9 60 60 9 240 240 0 15.3000 134.800 3 58 980 15.4000 134.700 STS 60 975 8 312
1997196N08142 1997 51 WP MM ROSIE 1997-07-21 03:00:00 TS 15.6337 134.425 main 1033 1016 PPPP__________ WP101997 15.7500 134.350 75 1 15.5424 134.507 4 60 975 9 60 60 9 255 255 15.5925 134.450 3 58 980 15.6500 134.392 STS 60 975 8 312
1997196N08142 1997 51 WP MM ROSIE 1997-07-21 06:00:00 TS 15.9000 134.125 60 975 tokyo main 1016 1000 OOOO__________ jtwc_wp WP101997 16.0000 134.100 80 1 15.8000 134.200 4 60 975 9 60 60 9 270 270 0 15.9000 134.100 3 58 980 15.9000 134.100 STS 60 975 8 313
1997196N08142 1997 51 WP MM ROSIE 1997-07-21 09:00:00 TS 16.1787 133.824 main 1000 991 PPPP__________ WP101997 16.2500 133.850 82 1 16.1001 133.835 4 62 972 9 65 65 9 285 285 16.2150 133.770 3 63 975 16.1499 133.842 STS 62 972 8 315
1997196N08142 1997 51 WP MM ROSIE 1997-07-21 12:00:00 TS 16.4500 133.550 65 970 tokyo main 996 979 OOOO__________ jtwc_wp WP101997 16.5000 133.600 85 2 16.4000 133.500 5 65 970 9 70 70 9 300 300 0 16.5000 133.500 4 68 970 16.4000 133.600 T 65 970 7 317
1997196N08142 1997 51 WP MM ROSIE 1997-07-21 15:00:00 TS 16.6874 133.334 main 979 972 PPPP__________ WP101997 16.7575 133.350 87 2 16.6499 133.285 5 67 967 9 75 75 9 312 312 16.6924 133.350 4 68 970 16.6500 133.350 T 67 965 6 319
1997196N08142 1997 51 WP MM ROSIE 1997-07-21 18:00:00 TS 16.9250 133.125 70 965 tokyo main 972 966 OOOO__________ jtwc_wp WP101997 17.0000 133.100 90 2 16.9000 133.100 5 70 965 9 80 80 9 325 325 0 16.9000 133.200 4 68 970 16.9000 133.100 T 70 960 7 319
1997196N08142 1997 51 WP MM ROSIE 1997-07-21 21:00:00 TS 17.2132 132.859 main 973 959 PPPP__________ WP101997 17.2150 132.842 95 2 17.2150 132.843 5 72 960 9 85 85 9 337 337 17.2651 132.908 4 72 965 17.1575 132.842 T 75 955 7 318
1997196N08142 1997 51 WP MM ROSIE 1997-07-22 00:00:00 TS 17.4750 132.600 75 955 tokyo main 965 951 OOOO__________ jtwc_wp WP101997 17.4000 132.600 100 3 17.5000 132.600 5 75 955 9 90 90 9 350 350 0 17.6000 132.600 4 77 960 17.4000 132.600 T 80 950 6 313
1997196N08142 1997 51 WP MM ROSIE 1997-07-22 03:00:00 TS 17.6362 132.386 main 951 936 PPPP__________ WP101997 17.5425 132.377 107 3 17.6650 132.427 5 77 950 9 100 100 9 362 362 17.7300 132.362 4 87 955 17.6075 132.377 T 85 945 5 310
1997196N08142 1997 51 WP MM ROSIE 1997-07-22 06:00:00 TS 17.7750 132.225 80 945 tokyo main 941 937 OOOO__________ jtwc_wp WP101997 17.7000 132.200 115 4 17.8000 132.300 5 80 945 9 110 110 9 375 375 0 17.8000 132.200 5 97 950 17.8000 132.200 ST 90 940 4 322
1997196N08142 1997 51 WP MM ROSIE 1997-07-22 09:00:00 TS 17.9618 132.119 main 942 942 PPPP__________ WP101997 17.9350 132.077 127 4 17.9925 132.185 5 85 940 9 120 120 9 387 387 17.9275 132.135 5 97 947 17.9925 132.077 ST 95 932 4 337
1997196N08142 1997 51 WP MM ROSIE 1997-07-22 12:00:00 TS 18.1750 132.050 90 935 tokyo main 953 944 OOOO__________ jtwc_wp WP101997 18.2000 132.000 140 5 18.2000 132.100 5 90 935 9 130 130 9 400 400 0 18.1000 132.100 5 97 945 18.2000 132.000 SuperT 100 925 5 344
1997196N08142 1997 51 WP MM ROSIE 1997-07-22 15:00:00 TS 18.4031 131.978 main 955 952 PPPP__________ WP101997 18.4425 131.942 140 5 18.3925 132.042 5 92 930 9 140 140 9 400 400 18.3350 131.993 5 97 945 18.4425 131.935 SuperT 100 925 5 346
1997196N08142 1997 51 WP MM ROSIE 1997-07-22 18:00:00 TS 18.6500 131.925 95 925 tokyo main 963 963 OOOO__________ jtwc_wp WP101997 18.7000 131.900 140 5 18.6000 132.000 5 95 925 9 150 150 9 400 400 0 18.6000 131.900 5 97 945 18.7000 131.900 SuperT 100 925 5 350
1997196N08142 1997 51 WP MM ROSIE 1997-07-22 21:00:00 TS 18.8956 131.889 main 976 976 PPPP__________ WP101997 18.9925 131.835 137 5 18.8275 131.943 5 97 922 9 155 155 9 400 400 18.8275 131.885 5 97 945 18.9350 131.892 SuperT 100 925 5 356
1997196N08142 1997 51 WP MM ROSIE 1997-07-23 00:00:00 TS 19.1750 131.875 100 920 tokyo main 995 995 OOOO__________ jtwc_wp WP101997 19.3000 131.800 135 4 19.1000 131.900 5 100 920 9 160 160 9 400 400 0 19.1000 131.900 5 97 945 19.2000 131.900 SuperT 100 925 6 358
1997196N08142 1997 51 WP MM ROSIE 1997-07-23 03:00:00 TS 19.5119 131.876 main 1015 1015 PPPP__________ WP101997 19.5850 131.828 132 4 19.4350 131.885 5 100 920 9 160 160 9 400 400 19.4925 131.900 5 101 940 19.5350 131.893 SuperT 100 925 7 0
1997196N08142 1997 51 WP MM ROSIE 1997-07-23 06:00:00 TS 19.8750 131.900 100 920 tokyo main 1022 1022 OOOO__________ jtwc_wp WP101997 19.9000 131.900 130 4 19.8000 131.900 5 100 920 9 160 160 9 400 400 0 19.9000 131.900 6 106 935 19.9000 131.900 SuperT 100 925 7 5
1997196N08142 1997 51 WP MM ROSIE 1997-07-23 09:00:00 TS 20.2137 131.937 main 1027 1027 PPPP__________ WP101997 20.2850 131.992 130 4 20.1350 131.935 5 100 920 9 160 160 9 400 400 20.1925 131.885 6 106 935 20.2425 131.935 SuperT 100 925 7 8
1997196N08142 1997 51 WP MM ROSIE 1997-07-23 12:00:00 TS 20.5750 132.000 100 920 tokyo main 1045 1045 OOOO__________ jtwc_wp WP101997 20.7000 132.100 130 4 20.5000 132.000 5 100 920 9 160 160 9 400 400 0 20.5000 131.900 6 106 935 20.6000 132.000 SuperT 100 925 8 10
1997196N08142 1997 51 WP MM ROSIE 1997-07-23 15:00:00 TS 20.9794 132.087 main 1066 1066 PPPP__________ WP101997 21.0925 132.200 127 4 20.9275 132.078 5 100 920 9 160 160 9 400 400 20.9200 131.978 6 106 935 20.9775 132.093 SuperT 100 925 9 12
1997196N08142 1997 51 WP MM ROSIE 1997-07-23 18:00:00 TS 21.4250 132.200 100 920 tokyo main 1082 1028 OOOO__________ jtwc_wp WP101997 21.5000 132.300 125 4 21.4000 132.200 5 100 920 9 160 160 9 400 400 0 21.4000 132.100 6 106 935 21.4000 132.200 SuperT 100 925 10 14
1997196N08142 1997 51 WP MM ROSIE 1997-07-23 21:00:00 TS 21.9014 132.334 main 1028 976 PPPP__________ WP101997 21.9350 132.393 120 4 21.8932 132.407 5 97 922 9 155 155 9 400 400 21.8925 132.243 6 101 940 21.8850 132.293 SuperT 97 930 10 15
1997196N08142 1997 51 WP MM ROSIE 1997-07-24 00:00:00 TS 22.4000 132.475 95 925 tokyo main 976 923 OOOO__________ jtwc_wp WP101997 22.4000 132.500 115 4 22.4000 132.600 5 95 925 9 150 150 9 400 400 0 22.4000 132.400 5 97 945 22.4000 132.400 ST 95 935 10 14
1997196N08142 1997 51 WP MM ROSIE 1997-07-24 03:00:00 TS 22.8887 132.601 95 925 tokyo main 923 871 POPP__________ WP101997 22.8775 132.635 110 3 22.9000 132.700 5 95 925 9 150 150 9 400 400 0 22.8924 132.535 5 97 945 22.8850 132.535 ST 92 937 11 14
1997196N08142 1997 51 WP MM ROSIE 1997-07-24 06:00:00 TS 23.4250 132.750 90 930 tokyo main 873 821 OOOO__________ jtwc_wp WP101997 23.4000 132.800 105 3 23.5000 132.800 5 90 930 9 150 150 9 375 375 0 23.4000 132.700 5 97 945 23.4000 132.700 ST 90 940 11 17
1997196N08142 1997 51 WP MM ROSIE 1997-07-24 09:00:00 TS 23.9706 132.957 90 930 tokyo main 813 766 POPP__________ WP101997 23.9775 132.993 100 3 24.0000 133.000 5 90 930 9 150 150 9 375 375 0 23.9201 132.943 5 92 950 23.9850 132.893 ST 87 942 12 19
1997196N08142 1997 51 WP MM ROSIE 1997-07-24 12:00:00 TS 24.5500 133.175 90 935 tokyo main 755 699 OOOO__________ jtwc_wp WP101997 24.6000 133.200 95 2 24.5000 133.200 5 90 935 9 140 140 9 375 375 0 24.5000 133.200 5 87 955 24.6000 133.100 ST 85 945 13 18
1997196N08142 1997 51 WP MM ROSIE 1997-07-24 15:00:00 TS 25.1894 133.406 90 935 tokyo main 699 645 POPP__________ WP101997 25.2500 133.400 92 2 25.1000 133.500 5 90 935 9 140 140 9 350 350 0 25.2075 133.422 5 82 960 25.2000 133.300 ST 82 950 14 16
1997196N08142 1997 51 WP MM ROSIE 1997-07-24 18:00:00 TS 25.8750 133.600 85 940 tokyo main 635 590 OOOO__________ jtwc_wp WP101997 25.9000 133.600 90 2 25.9000 133.700 5 85 940 9 130 130 9 350 350 0 25.9000 133.600 4 77 965 25.8000 133.500 T 80 955 13 13
1997196N08142 1997 51 WP MM ROSIE 1997-07-24 21:00:00 TS 26.4268 133.723 85 940 tokyo main 590 547 POPP__________ WP101997 26.5074 133.793 90 2 26.4000 133.700 5 85 940 9 130 130 9 350 350 0 26.3999 133.701 4 77 965 26.4000 133.700 T 80 955 11 12
1997196N08142 1997 51 WP MM ROSIE 1997-07-25 00:00:00 TS 26.9750 133.850 85 940 tokyo main 543 492 OOOO__________ jtwc_wp WP101997 27.1000 134.000 90 2 26.9000 133.700 5 85 940 9 130 130 1 400 300 0 26.9000 133.800 4 77 965 27.0000 133.900 T 80 955 12 13
1997196N08142 1997 51 WP MM ROSIE 1997-07-25 03:00:00 TS 27.6212 134.032 85 940 tokyo main 492 447 POPP__________ WP101997 27.7001 134.257 87 2 27.6000 133.800 5 85 940 9 130 130 1 400 300 0 27.5925 133.970 4 77 965 27.5925 134.100 T 80 955 14 15
1997196N08142 1997 51 WP MM ROSIE 1997-07-25 06:00:00 TS 28.2750 134.250 80 945 tokyo main 444 415 OOOO__________ jtwc_wp WP101997 28.3000 134.500 85 2 28.3000 134.000 5 80 945 9 120 120 1 400 300 0 28.3000 134.200 4 77 965 28.2000 134.300 T 80 955 13 18
1997196N08142 1997 51 WP MM ROSIE 1997-07-25 09:00:00 TS 28.8750 134.499 80 945 tokyo main 407 386 POPP__________ WP101997 28.8999 134.673 82 1 28.9000 134.300 5 80 945 9 120 120 1 400 300 0 28.8576 134.507 4 77 965 28.8425 134.515 T 80 955 13 20
1997196N08142 1997 51 WP MM ROSIE 1997-07-25 12:00:00 TS 29.4500 134.750 80 950 tokyo main 388 350 OOOO__________ jtwc_wp WP101997 29.5000 134.800 80 1 29.4000 134.700 5 80 950 9 110 110 1 375 270 0 29.4000 134.800 4 77 965 29.5000 134.700 T 80 955 13 17
1997196N08142 1997 51 WP MM ROSIE 1997-07-25 15:00:00 TS 30.0693 134.908 80 950 tokyo main 341 288 POPP__________ WP101997 30.1000 134.922 77 1 30.0000 134.900 5 80 950 9 110 110 1 375 270 0 30.0274 134.995 4 72 967 30.1499 134.815 T 77 957 13 10
1997196N08142 1997 51 WP MM ROSIE 1997-07-25 18:00:00 TS 30.7250 135.025 75 955 tokyo main 288 217 OOOO__________ jtwc_wp WP101997 30.7000 135.000 75 1 30.7000 135.100 5 75 955 9 100 100 1 375 270 0 30.7000 135.100 4 68 970 30.8000 134.900 T 75 960 13 7
1997196N08142 1997 51 WP MM ROSIE 1997-07-25 21:00:00 TS 31.3875 135.103 75 955 tokyo main 217 158 POPP__________ WP101997 31.2850 135.037 75 1 31.4000 135.200 5 75 955 9 100 100 1 375 270 0 31.4149 135.145 4 68 970 31.4500 135.030 T 72 962 13 2
1997196N08142 1997 51 WP MM ROSIE 1997-07-26 00:00:00 TS 32.0500 135.075 75 960 tokyo main 148 93 OOOO__________ jtwc_wp WP101997 31.9000 135.000 75 1 32.1000 135.100 5 75 960 9 100 100 1 350 250 0 32.1000 135.100 4 68 970 32.1000 135.100 T 70 965 13 354
1997196N08142 1997 51 WP MM ROSIE 1997-07-26 03:00:00 TS 32.6387 134.937 75 960 tokyo main 93 55 POPP__________ WP101997 32.5775 134.887 72 1 32.6000 134.800 5 75 960 9 100 100 1 350 250 0 32.6349 134.994 4 66 972 32.7423 135.067 T 67 967 13 348
1997196N08142 1997 51 WP MM ROSIE 1997-07-26 06:00:00 TS 33.2750 134.775 75 965 tokyo main 52 0 OOOO__________ jtwc_wp WP101997 33.3000 134.700 70 1 33.2000 134.700 5 75 965 2 120 80 1 350 250 0 33.2000 134.800 4 64 975 33.4000 134.900 T 65 970 14 349
1997196N08142 1997 51 WP MM ROSIE 1997-07-26 08:00:00 TS 33.7935 134.675 70 970 tokyo main 0 0 POPP__________ WP101997 33.8243 134.587 68 1 33.7000 134.700 5 70 970 2 120 80 2 280 220 1 33.7421 134.678 4 61 976 33.9074 134.734 T 63 971 16 349
1997196N08142 1997 51 WP MM ROSIE 1997-07-26 09:00:00 TS 34.0690 134.585 70 970 tokyo main 0 0 POPP__________ WP101997 34.0870 134.517 67 1 34.0000 134.600 5 70 970 2 120 80 2 280 220 0 34.0292 134.597 4 61 977 34.1597 134.626 T 62 972 17 342
1997196N08142 1997 51 WP MM ROSIE 1997-07-26 11:00:00 TS 34.5919 134.363 70 975 tokyo main 18 0 POPP__________ WP101997 34.5813 134.328 65 1 34.6000 134.400 5 70 975 2 120 80 2 260 200 1 34.5711 134.365 4 58 979 34.6152 134.359 T 60 974 16 337
1997196N08142 1997 51 WP MM ROSIE 1997-07-26 12:00:00 TS 34.8000 134.200 60 980 tokyo main 0 0 OOOO__________ jtwc_wp WP101997 34.8000 134.200 65 1 34.8000 134.200 4 60 980 9 70 70 2 260 200 0 34.8000 134.200 3 58 980 34.8000 134.200 STS 60 975 15 310
1997196N08142 1997 51 WP MM ROSIE 1997-07-26 15:00:00 TS 35.2384 133.416 50 985 tokyo main 0 0 POPP__________ WP101997 35.3408 133.616 60 0 35.2000 133.100 4 50 985 0 2 260 200 0 35.2570 133.378 3 53 982 35.1559 133.570 STS 55 980 13 301
1997196N08142 1997 51 WP MM ROSIE 1997-07-26 18:00:00 TS 35.5000 132.800 50 985 tokyo main 9 9 OOOO__________ jtwc_wp WP101997 35.7000 133.000 55 0 35.5000 132.600 4 50 985 0 2 260 200 0 35.5000 132.600 3 48 985 35.3000 133.000 STS 50 985 8 297
1997196N08142 1997 51 WP MM ROSIE 1997-07-26 21:00:00 TS 35.6208 132.499 50 985 tokyo main 24 24 POPP__________ WP101997 35.9323 132.544 50 0 35.6000 132.400 4 50 985 0 2 260 200 0 35.6441 132.306 3 43 987 35.3070 132.744 STS 47 987 4 298
1997196N08142 1997 51 WP MM ROSIE 1997-07-27 00:00:00 TS 35.6750 132.400 45 990 tokyo main 37 34 OOOO__________ jtwc_wp WP101997 36.0000 132.300 45 0 35.7000 132.300 3 45 990 0 2 220 180 0 35.7000 132.300 2 38 990 35.3000 132.700 TS 45 990 1 350
1997196N08142 1997 51 WP MM ROSIE 1997-07-27 03:00:00 TS 35.7162 132.471 45 990 tokyo main 34 33 POPP__________ WP101997 35.9148 132.318 42 0 35.7000 132.400 3 45 990 0 3 220 180 0 35.7650 132.405 2 38 992 35.4850 132.762 TS 42 991 2 63
1997196N08142 1997 51 WP MM ROSIE 1997-07-27 06:00:00 TS 35.7750 132.650 45 992 tokyo main 37 34 OOOO__________ jtwc_wp WP101997 35.8000 132.500 40 0 35.8000 132.600 3 45 992 0 3 220 180 0 35.8000 132.600 2 38 995 35.7000 132.900 TS 40 992 3 69
1997196N08142 1997 51 WP MM ROSIE 1997-07-27 09:00:00 TS 35.8106 132.774 45 992 tokyo main 34 33 POPP__________ WP101997 35.8123 132.655 40 0 35.8000 132.700 3 45 992 0 3 220 180 0 35.8074 132.743 2 38 995 35.8225 133.000 TS 37 993 2 73
1997196N08142 1997 51 WP MM ROSIE 1997-07-27 12:00:00 TS 35.8467 132.940 40 994 tokyo main 33 33 OOOO__________ jtwc_wp WP101997 35.9000 132.900 40 0 35.8000 132.900 3 40 994 0 9 160 160 0 35.8000 132.900 2 38 995 35.9000 133.100 TS 35 994 3 75
1997196N08142 1997 51 WP MM ROSIE 1997-07-27 15:00:00 TS 35.8914 133.154 40 994 tokyo main 44 44 POPP__________ WP101997 36.0500 133.262 37 0 35.8000 133.100 3 40 994 0 9 120 120 0 35.7924 133.078 2 33 996 35.9550 133.200 TS 32 995 4 76
1997196N08142 1997 51 WP MM ROSIE 1997-07-27 18:00:00 TS 35.9385 133.392 35 996 tokyo main 45 45 OOOO__________ jtwc_wp WP101997 36.2000 133.700 35 0 35.8000 133.200 3 35 996 0 9 90 90 0 35.8000 133.300 1 29 998 36.0000 133.300 TD 30 996 5 79
1997196N08142 1997 51 WP MM ROSIE 1997-07-27 21:00:00 TS 35.9813 133.715 998 tokyo main 66 52 POP___________ WP101997 36.3024 134.142 32 -1 35.8000 133.500 2 998 0 0 0 35.8415 133.503 1 29 999 TD 6 83
1997196N08142 1997 51 WP MM ROSIE 1997-07-28 00:00:00 TS 36.0091 134.118 1000 tokyo main 52 42 OOO___________ jtwc_wp WP101997 36.3000 134.600 30 -1 35.8000 133.800 2 1000 0 0 0 35.9000 133.900 1 29 1000 9 91
1997196N08142 1997 51 WP MM ROSIE 1997-07-28 03:00:00 TS 35.9697 134.826 main 42 22 PPP___________ WP101997 36.1373 135.050 30 -1 35.8094 134.692 2 1001 0 0 35.9549 134.645 1 26 1001 12 97
1997196N08142 1997 51 WP MM ROSIE 1997-07-28 06:00:00 TS 35.8667 135.600 1002 tokyo main 35 0 OOO___________ jtwc_wp WP101997 35.9000 135.500 30 -1 35.8000 135.700 2 1002 0 0 0 36.0000 135.600 1 23 1002 10 102
1997196N08142 1997 51 WP MM ROSIE 1997-07-28 09:00:00 TS 35.7582 136.088 main 0 0 PP____________ WP101997 35.7074 135.957 27 -1 35.8089 136.220 2 1002 0 0 1 7 111
1997196N08142 1997 51 WP MM ROSIE 1997-07-28 12:00:00 TS 35.6000 136.450 1002 tokyo main 0 0 OO____________ jtwc_wp WP101997 35.5000 136.400 25 -1 35.7000 136.500 2 1002 0 0 0 7 130
1997196N08142 1997 51 WP MM ROSIE 1997-07-28 15:00:00 TS 35.3086 136.751 main 0 0 PP____________ WP101997 35.2651 136.845 25 -1 35.3521 136.657 2 1002 0 0 8 145
1997196N08142 1997 51 WP MM ROSIE 1997-07-28 18:00:00 TS 34.9500 137.000 1002 tokyo main 0 0 OO____________ jtwc_wp WP101997 35.0000 137.200 25 -1 34.9000 136.800 2 1002 0 0 0 8 150
1997196N08142 1997 51 WP MM ROSIE 1997-07-28 21:00:00 TS 34.5775 137.269 main 11 11 PP____________ WP101997 34.7073 137.402 25 -1 34.4477 137.136 2 1002 0 0 8 150
1997196N08142 1997 51 WP MM ROSIE 1997-07-29 00:00:00 TS 34.2286 137.500 1002 tokyo main 55 55 OO____________ jtwc_wp WP101997 34.4000 137.500 25 -1 34.1000 137.500 2 1002 0 0 0 6 145
1997196N08142 1997 51 WP MM ROSIE 1997-07-29 03:00:00 TS 34.0458 137.715 main 78 72 PP____________ WP101997 34.0976 137.558 25 -1 34.0200 137.794 2 1002 0 0 4 128
1997196N08142 1997 51 WP MM ROSIE 1997-07-29 06:00:00 TS 33.9600 137.920 1002 tokyo main 72 72 OO____________ jtwc_wp WP101997 33.8000 137.600 25 -1 34.0000 138.000 2 1002 0 0 0 4 127
1997196N08142 1997 51 WP MM ROSIE 1997-07-29 09:00:00 TS 33.8224 138.080 main 89 89 _P____________ WP101997 -1 33.8224 138.080 2 1002 0 0 4 157
1997196N08142 1997 51 WP MM ROSIE 1997-07-29 12:00:00 TS 33.6000 138.100 1002 tokyo main 111 111 _O____________ -1 33.6000 138.100 2 1002 0 0 0 4 171
1997196N08142 1997 51 WP MM ROSIE 1997-07-29 15:00:00 TS 33.3925 138.158 main 133 133 _P____________ -1 33.3925 138.158 2 1002 0 0 4 169
1997196N08142 1997 51 WP MM ROSIE 1997-07-29 18:00:00 TS 33.2000 138.200 1002 tokyo main 156 156 _O____________ -1 33.2000 138.200 2 1002 0 0 0 3 170
1997196N08142 1997 51 WP MM ROSIE 1997-07-29 21:00:00 TS 33.0575 138.230 main 167 167 _P____________ -1 33.0575 138.230 2 1003 0 0 3 0
1997196N08142 1997 51 WP MM ROSIE 1997-07-30 00:00:00 TS 32.9000 138.200 1004 tokyo main 189 189 _O____________ -1 32.9000 138.200 2 1004 0 0 0 4 198
1997196N08142 1997 51 WP MM ROSIE 1997-07-30 03:00:00 TS 32.6500 138.072 main 210 210 _P____________ -1 32.6500 138.072 2 1004 0 0 6 207
1997196N08142 1997 51 WP MM ROSIE 1997-07-30 06:00:00 TS 32.4000 137.900 1004 tokyo main 221 221 _O____________ -1 32.4000 137.900 2 1004 0 0 0 5 212
1997196N08142 1997 51 WP MM ROSIE 1997-07-30 09:00:00 TS 32.2274 137.765 main 228 221 _P____________ -1 32.2274 137.765 2 1005 0 0 4 220
1997196N08142 1997 51 WP MM ROSIE 1997-07-30 12:00:00 TS 32.1000 137.600 1006 tokyo main 221 214 _O____________ -1 32.1000 137.600 2 1006 0 0 0 4 234
1997196N08142 1997 51 WP MM ROSIE 1997-07-30 15:00:00 TS 31.9775 137.365 main 216 206 _P____________ -1 31.9775 137.365 2 1006 0 0 5 245
1997196N08142 1997 51 WP MM ROSIE 1997-07-30 18:00:00 TS 31.9000 137.100 1006 tokyo main 206 196 _O____________ -1 31.9000 137.100 2 1006 0 0 0 5 259
1997196N08142 1997 51 WP MM ROSIE 1997-07-30 21:00:00 TS 31.8925 136.843 main 191 183 _P____________ -1 31.8925 136.843 2 1006 0 0 4 270
1997196N08142 1997 51 WP MM ROSIE 1997-07-31 00:00:00 TS 31.9000 136.600 1006 tokyo main 183 176 _O____________ -1 31.9000 136.600 2 1006 0 0 0 4 266
1997196N08142 1997 51 WP MM ROSIE 1997-07-31 03:00:00 TS 31.8650 136.390 main 176 173 _P____________ -1 31.8650 136.390 2 1006 0 0 4 254
1997196N08142 1997 51 WP MM ROSIE 1997-07-31 06:00:00 TS 31.8000 136.200 1006 tokyo main 182 _O____________ -1 31.8000 136.200 2 1006 0 0 0 3 248

デジタル台風データ・検索

IBTrACS Databaseについて

本データベースは、米国NOAAが公開する1842年以降の世界の熱帯低気圧のベストトラックデータアーカイブInternational Best Track Archive for Climate Stewardship (IBTrACS)を、ウェブで閲覧しやすい形式に変換したものです。

最終更新日:2021-10-08